sensor_id;sensor_type;location;lat;lon;timestamp;P1;durP1;ratioP1;P2;durP2;ratioP2
26042;SDS011;13818;52.156;5.382;2023-09-18T00:01:36;19.92;;;11.05;;
26042;SDS011;13818;52.156;5.382;2023-09-18T00:04:05;19.48;;;10.65;;
26042;SDS011;13818;52.156;5.382;2023-09-18T00:06:40;19.92;;;10.48;;
26042;SDS011;13818;52.156;5.382;2023-09-18T00:09:11;21.40;;;10.63;;
26042;SDS011;13818;52.156;5.382;2023-09-18T00:11:39;17.55;;;10.10;;
26042;SDS011;13818;52.156;5.382;2023-09-18T00:14:07;15.50;;;8.65;;
26042;SDS011;13818;52.156;5.382;2023-09-18T00:16:35;17.67;;;10.13;;
26042;SDS011;13818;52.156;5.382;2023-09-18T00:19:08;17.90;;;10.45;;
26042;SDS011;13818;52.156;5.382;2023-09-18T00:21:36;14.52;;;9.18;;
26042;SDS011;13818;52.156;5.382;2023-09-18T00:24:03;22.65;;;9.95;;
26042;SDS011;13818;52.156;5.382;2023-09-18T00:26:33;15.63;;;9.70;;
26042;SDS011;13818;52.156;5.382;2023-09-18T00:29:00;19.58;;;10.48;;
26042;SDS011;13818;52.156;5.382;2023-09-18T00:31:28;15.60;;;9.73;;
26042;SDS011;13818;52.156;5.382;2023-09-18T00:33:56;17.92;;;10.43;;
26042;SDS011;13818;52.156;5.382;2023-09-18T00:36:24;23.25;;;10.30;;
26042;SDS011;13818;52.156;5.382;2023-09-18T00:38:57;15.38;;;8.98;;
26042;SDS011;13818;52.156;5.382;2023-09-18T00:41:31;19.85;;;9.95;;
26042;SDS011;13818;52.156;5.382;2023-09-18T00:44:00;16.10;;;9.93;;
26042;SDS011;13818;52.156;5.382;2023-09-18T00:46:28;17.58;;;10.93;;
26042;SDS011;13818;52.156;5.382;2023-09-18T00:48:57;16.27;;;9.80;;
26042;SDS011;13818;52.156;5.382;2023-09-18T00:51:28;16.27;;;8.77;;
26042;SDS011;13818;52.156;5.382;2023-09-18T00:53:57;18.05;;;10.45;;
26042;SDS011;13818;52.156;5.382;2023-09-18T00:56:29;15.63;;;10.35;;
26042;SDS011;13818;52.156;5.382;2023-09-18T00:58:59;18.30;;;10.98;;
26042;SDS011;13818;52.156;5.382;2023-09-18T01:01:29;16.80;;;9.80;;
26042;SDS011;13818;52.156;5.382;2023-09-18T01:03:59;17.58;;;9.70;;
26042;SDS011;13818;52.156;5.382;2023-09-18T01:06:31;17.98;;;9.45;;
26042;SDS011;13818;52.156;5.382;2023-09-18T01:08:58;16.08;;;9.73;;
26042;SDS011;13818;52.156;5.382;2023-09-18T01:11:39;15.52;;;9.05;;
26042;SDS011;13818;52.156;5.382;2023-09-18T01:14:14;19.55;;;10.18;;
26042;SDS011;13818;52.156;5.382;2023-09-18T01:16:49;14.00;;;8.75;;
26042;SDS011;13818;52.156;5.382;2023-09-18T01:19:38;13.30;;;8.57;;
26042;SDS011;13818;52.156;5.382;2023-09-18T01:22:06;17.98;;;9.20;;
26042;SDS011;13818;52.156;5.382;2023-09-18T01:24:39;13.75;;;8.85;;
26042;SDS011;13818;52.156;5.382;2023-09-18T01:27:08;14.75;;;9.38;;
26042;SDS011;13818;52.156;5.382;2023-09-18T01:29:41;17.45;;;9.57;;
26042;SDS011;13818;52.156;5.382;2023-09-18T01:32:12;14.77;;;8.88;;
26042;SDS011;13818;52.156;5.382;2023-09-18T01:34:44;18.33;;;9.80;;
26042;SDS011;13818;52.156;5.382;2023-09-18T01:37:19;16.20;;;9.73;;
26042;SDS011;13818;52.156;5.382;2023-09-18T01:39:50;17.30;;;9.80;;
26042;SDS011;13818;52.156;5.382;2023-09-18T01:42:18;15.25;;;9.02;;
26042;SDS011;13818;52.156;5.382;2023-09-18T01:44:51;18.50;;;9.73;;
26042;SDS011;13818;52.156;5.382;2023-09-18T01:47:21;18.63;;;10.13;;
26042;SDS011;13818;52.156;5.382;2023-09-18T01:49:56;18.35;;;10.40;;
26042;SDS011;13818;52.156;5.382;2023-09-18T01:52:24;17.55;;;9.98;;
26042;SDS011;13818;52.156;5.382;2023-09-18T01:54:52;17.40;;;9.82;;
26042;SDS011;13818;52.156;5.382;2023-09-18T01:57:21;17.45;;;9.70;;
26042;SDS011;13818;52.156;5.382;2023-09-18T01:59:48;17.58;;;9.32;;
26042;SDS011;13818;52.156;5.382;2023-09-18T02:02:23;16.05;;;9.20;;
26042;SDS011;13818;52.156;5.382;2023-09-18T02:04:52;14.45;;;8.60;;
26042;SDS011;13818;52.156;5.382;2023-09-18T02:07:19;16.35;;;9.57;;
26042;SDS011;13818;52.156;5.382;2023-09-18T02:09:55;19.55;;;10.30;;
26042;SDS011;13818;52.156;5.382;2023-09-18T02:12:31;15.35;;;9.77;;
26042;SDS011;13818;52.156;5.382;2023-09-18T02:15:02;15.18;;;9.90;;
26042;SDS011;13818;52.156;5.382;2023-09-18T02:17:35;14.50;;;9.50;;
26042;SDS011;13818;52.156;5.382;2023-09-18T02:20:03;17.15;;;10.18;;
26042;SDS011;13818;52.156;5.382;2023-09-18T02:22:36;19.67;;;10.65;;
26042;SDS011;13818;52.156;5.382;2023-09-18T02:25:11;18.65;;;10.70;;
26042;SDS011;13818;52.156;5.382;2023-09-18T02:27:41;16.35;;;10.13;;
26042;SDS011;13818;52.156;5.382;2023-09-18T02:30:14;21.83;;;10.30;;
26042;SDS011;13818;52.156;5.382;2023-09-18T02:32:41;19.30;;;10.20;;
26042;SDS011;13818;52.156;5.382;2023-09-18T02:35:11;18.65;;;10.43;;
26042;SDS011;13818;52.156;5.382;2023-09-18T02:37:38;18.08;;;10.55;;
26042;SDS011;13818;52.156;5.382;2023-09-18T02:40:15;18.17;;;9.32;;
26042;SDS011;13818;52.156;5.382;2023-09-18T02:42:43;18.50;;;10.18;;
26042;SDS011;13818;52.156;5.382;2023-09-18T02:45:14;22.20;;;11.30;;
26042;SDS011;13818;52.156;5.382;2023-09-18T02:47:42;22.23;;;10.50;;
26042;SDS011;13818;52.156;5.382;2023-09-18T02:50:14;16.35;;;9.80;;
26042;SDS011;13818;52.156;5.382;2023-09-18T02:52:42;18.38;;;10.27;;
26042;SDS011;13818;52.156;5.382;2023-09-18T02:55:09;20.20;;;10.57;;
26042;SDS011;13818;52.156;5.382;2023-09-18T02:57:37;16.45;;;9.77;;
26042;SDS011;13818;52.156;5.382;2023-09-18T03:00:08;21.05;;;10.73;;
26042;SDS011;13818;52.156;5.382;2023-09-18T03:02:36;17.90;;;10.60;;
26042;SDS011;13818;52.156;5.382;2023-09-18T03:05:06;22.27;;;10.73;;
26042;SDS011;13818;52.156;5.382;2023-09-18T03:07:34;19.48;;;10.63;;
26042;SDS011;13818;52.156;5.382;2023-09-18T03:12:30;21.80;;;10.25;;
26042;SDS011;13818;52.156;5.382;2023-09-18T03:14:59;18.10;;;10.32;;
26042;SDS011;13818;52.156;5.382;2023-09-18T03:17:26;22.65;;;11.23;;
26042;SDS011;13818;52.156;5.382;2023-09-18T03:19:57;21.20;;;11.35;;
26042;SDS011;13818;52.156;5.382;2023-09-18T03:22:26;20.50;;;11.40;;
26042;SDS011;13818;52.156;5.382;2023-09-18T03:24:55;22.83;;;11.10;;
26042;SDS011;13818;52.156;5.382;2023-09-18T03:27:22;23.58;;;11.13;;
26042;SDS011;13818;52.156;5.382;2023-09-18T03:29:53;22.35;;;11.93;;
26042;SDS011;13818;52.156;5.382;2023-09-18T03:32:22;20.65;;;11.15;;
26042;SDS011;13818;52.156;5.382;2023-09-18T03:34:51;25.08;;;11.68;;
26042;SDS011;13818;52.156;5.382;2023-09-18T03:37:24;20.27;;;11.18;;
26042;SDS011;13818;52.156;5.382;2023-09-18T03:39:51;22.83;;;12.55;;
26042;SDS011;13818;52.156;5.382;2023-09-18T03:42:20;23.33;;;13.02;;
26042;SDS011;13818;52.156;5.382;2023-09-18T03:44:47;19.10;;;11.43;;
26042;SDS011;13818;52.156;5.382;2023-09-18T03:47:14;17.45;;;10.30;;
26042;SDS011;13818;52.156;5.382;2023-09-18T03:49:46;19.77;;;11.27;;
26042;SDS011;13818;52.156;5.382;2023-09-18T03:52:13;22.02;;;11.25;;
26042;SDS011;13818;52.156;5.382;2023-09-18T03:54:40;20.75;;;10.30;;
26042;SDS011;13818;52.156;5.382;2023-09-18T03:57:08;20.00;;;10.70;;
26042;SDS011;13818;52.156;5.382;2023-09-18T03:59:35;20.80;;;11.65;;
26042;SDS011;13818;52.156;5.382;2023-09-18T04:02:08;22.00;;;11.20;;
26042;SDS011;13818;52.156;5.382;2023-09-18T04:04:37;22.10;;;10.60;;
26042;SDS011;13818;52.156;5.382;2023-09-18T04:07:06;18.23;;;9.80;;
26042;SDS011;13818;52.156;5.382;2023-09-18T04:09:34;18.50;;;10.93;;
26042;SDS011;13818;52.156;5.382;2023-09-18T04:12:03;21.27;;;10.68;;
26042;SDS011;13818;52.156;5.382;2023-09-18T04:14:33;19.27;;;10.52;;
26042;SDS011;13818;52.156;5.382;2023-09-18T04:17:03;17.65;;;8.90;;
26042;SDS011;13818;52.156;5.382;2023-09-18T04:19:38;19.25;;;9.68;;
26042;SDS011;13818;52.156;5.382;2023-09-18T04:22:11;21.00;;;10.10;;
26042;SDS011;13818;52.156;5.382;2023-09-18T04:24:40;17.70;;;8.90;;
26042;SDS011;13818;52.156;5.382;2023-09-18T04:27:09;14.38;;;8.52;;
26042;SDS011;13818;52.156;5.382;2023-09-18T04:29:39;15.23;;;9.02;;
26042;SDS011;13818;52.156;5.382;2023-09-18T04:32:06;19.52;;;8.85;;
26042;SDS011;13818;52.156;5.382;2023-09-18T04:34:33;15.27;;;8.00;;
26042;SDS011;13818;52.156;5.382;2023-09-18T04:37:00;13.77;;;7.93;;
26042;SDS011;13818;52.156;5.382;2023-09-18T04:39:27;15.73;;;8.35;;
26042;SDS011;13818;52.156;5.382;2023-09-18T04:41:55;16.95;;;8.02;;
26042;SDS011;13818;52.156;5.382;2023-09-18T04:44:21;12.13;;;7.40;;
26042;SDS011;13818;52.156;5.382;2023-09-18T04:46:48;15.73;;;8.13;;
26042;SDS011;13818;52.156;5.382;2023-09-18T04:49:14;13.23;;;7.40;;
26042;SDS011;13818;52.156;5.382;2023-09-18T04:51:41;16.92;;;8.48;;
26042;SDS011;13818;52.156;5.382;2023-09-18T04:54:07;15.25;;;7.53;;
26042;SDS011;13818;52.156;5.382;2023-09-18T04:56:35;17.45;;;8.93;;
26042;SDS011;13818;52.156;5.382;2023-09-18T04:59:02;11.35;;;7.28;;
26042;SDS011;13818;52.156;5.382;2023-09-18T05:01:28;12.85;;;7.35;;
26042;SDS011;13818;52.156;5.382;2023-09-18T05:03:55;12.25;;;7.70;;
26042;SDS011;13818;52.156;5.382;2023-09-18T05:06:22;12.70;;;7.07;;
26042;SDS011;13818;52.156;5.382;2023-09-18T05:08:48;15.30;;;8.60;;
26042;SDS011;13818;52.156;5.382;2023-09-18T05:11:16;15.07;;;7.75;;
26042;SDS011;13818;52.156;5.382;2023-09-18T05:13:45;16.15;;;8.38;;
26042;SDS011;13818;52.156;5.382;2023-09-18T05:16:11;15.40;;;8.35;;
26042;SDS011;13818;52.156;5.382;2023-09-18T05:18:38;14.82;;;8.07;;
26042;SDS011;13818;52.156;5.382;2023-09-18T05:21:05;13.65;;;7.47;;
26042;SDS011;13818;52.156;5.382;2023-09-18T05:23:34;13.68;;;6.85;;
26042;SDS011;13818;52.156;5.382;2023-09-18T05:26:01;13.73;;;6.13;;
26042;SDS011;13818;52.156;5.382;2023-09-18T05:28:28;10.23;;;6.28;;
26042;SDS011;13818;52.156;5.382;2023-09-18T05:30:56;12.10;;;6.10;;
26042;SDS011;13818;52.156;5.382;2023-09-18T05:33:22;13.13;;;6.60;;
26042;SDS011;13818;52.156;5.382;2023-09-18T05:35:49;11.02;;;6.25;;
26042;SDS011;13818;52.156;5.382;2023-09-18T05:38:16;12.88;;;7.00;;
26042;SDS011;13818;52.156;5.382;2023-09-18T05:40:43;9.63;;;5.63;;
26042;SDS011;13818;52.156;5.382;2023-09-18T05:43:10;15.23;;;6.57;;
26042;SDS011;13818;52.156;5.382;2023-09-18T05:45:37;14.77;;;5.82;;
26042;SDS011;13818;52.156;5.382;2023-09-18T05:48:05;10.50;;;5.25;;
26042;SDS011;13818;52.156;5.382;2023-09-18T05:50:32;11.82;;;5.57;;
26042;SDS011;13818;52.156;5.382;2023-09-18T05:53:00;11.98;;;5.47;;
26042;SDS011;13818;52.156;5.382;2023-09-18T05:55:29;9.88;;;5.45;;
26042;SDS011;13818;52.156;5.382;2023-09-18T05:57:56;11.80;;;5.63;;
26042;SDS011;13818;52.156;5.382;2023-09-18T06:00:22;10.48;;;5.93;;
26042;SDS011;13818;52.156;5.382;2023-09-18T06:02:49;10.20;;;5.20;;
26042;SDS011;13818;52.156;5.382;2023-09-18T06:05:18;11.23;;;5.78;;
26042;SDS011;13818;52.156;5.382;2023-09-18T06:07:46;12.63;;;5.70;;
26042;SDS011;13818;52.156;5.382;2023-09-18T06:10:13;9.80;;;5.50;;
26042;SDS011;13818;52.156;5.382;2023-09-18T06:12:40;9.82;;;5.10;;
26042;SDS011;13818;52.156;5.382;2023-09-18T06:15:07;11.00;;;4.80;;
26042;SDS011;13818;52.156;5.382;2023-09-18T06:17:35;10.50;;;5.30;;
26042;SDS011;13818;52.156;5.382;2023-09-18T06:20:02;11.43;;;5.15;;
26042;SDS011;13818;52.156;5.382;2023-09-18T06:22:30;9.85;;;5.25;;
26042;SDS011;13818;52.156;5.382;2023-09-18T06:24:58;14.93;;;5.68;;
26042;SDS011;13818;52.156;5.382;2023-09-18T06:27:24;15.60;;;5.82;;
26042;SDS011;13818;52.156;5.382;2023-09-18T06:29:50;12.40;;;6.38;;
26042;SDS011;13818;52.156;5.382;2023-09-18T06:32:17;9.57;;;5.50;;
26042;SDS011;13818;52.156;5.382;2023-09-18T06:34:43;10.80;;;5.88;;
26042;SDS011;13818;52.156;5.382;2023-09-18T06:37:10;11.68;;;5.35;;
26042;SDS011;13818;52.156;5.382;2023-09-18T06:39:39;11.13;;;5.18;;
26042;SDS011;13818;52.156;5.382;2023-09-18T06:42:06;10.60;;;5.05;;
26042;SDS011;13818;52.156;5.382;2023-09-18T06:44:32;8.80;;;5.25;;
26042;SDS011;13818;52.156;5.382;2023-09-18T06:46:59;10.25;;;5.40;;
26042;SDS011;13818;52.156;5.382;2023-09-18T06:49:25;9.98;;;5.35;;
26042;SDS011;13818;52.156;5.382;2023-09-18T06:51:52;7.38;;;4.35;;
26042;SDS011;13818;52.156;5.382;2023-09-18T06:54:19;9.80;;;4.93;;
26042;SDS011;13818;52.156;5.382;2023-09-18T06:56:46;8.77;;;4.82;;
26042;SDS011;13818;52.156;5.382;2023-09-18T06:59:13;8.15;;;4.63;;
26042;SDS011;13818;52.156;5.382;2023-09-18T07:01:39;7.82;;;4.32;;
26042;SDS011;13818;52.156;5.382;2023-09-18T07:04:06;12.45;;;4.13;;
26042;SDS011;13818;52.156;5.382;2023-09-18T07:06:32;7.68;;;3.65;;
26042;SDS011;13818;52.156;5.382;2023-09-18T07:08:59;11.32;;;4.32;;
26042;SDS011;13818;52.156;5.382;2023-09-18T07:11:25;9.52;;;4.30;;
26042;SDS011;13818;52.156;5.382;2023-09-18T07:13:53;9.48;;;4.13;;
26042;SDS011;13818;52.156;5.382;2023-09-18T07:16:19;9.32;;;4.70;;
26042;SDS011;13818;52.156;5.382;2023-09-18T07:18:46;12.35;;;4.70;;
26042;SDS011;13818;52.156;5.382;2023-09-18T07:21:12;10.35;;;4.80;;
26042;SDS011;13818;52.156;5.382;2023-09-18T07:23:39;8.50;;;4.30;;
26042;SDS011;13818;52.156;5.382;2023-09-18T07:26:05;9.55;;;4.05;;
26042;SDS011;13818;52.156;5.382;2023-09-18T07:28:32;8.20;;;4.72;;
26042;SDS011;13818;52.156;5.382;2023-09-18T07:31:04;8.65;;;5.00;;
26042;SDS011;13818;52.156;5.382;2023-09-18T07:33:32;9.32;;;4.75;;
26042;SDS011;13818;52.156;5.382;2023-09-18T07:35:58;8.90;;;4.90;;
26042;SDS011;13818;52.156;5.382;2023-09-18T07:38:24;8.95;;;5.38;;
26042;SDS011;13818;52.156;5.382;2023-09-18T07:40:51;11.30;;;5.10;;
26042;SDS011;13818;52.156;5.382;2023-09-18T07:43:17;9.13;;;4.80;;
26042;SDS011;13818;52.156;5.382;2023-09-18T07:45:44;8.82;;;5.00;;
26042;SDS011;13818;52.156;5.382;2023-09-18T07:48:11;8.80;;;5.40;;
26042;SDS011;13818;52.156;5.382;2023-09-18T07:50:39;7.30;;;4.30;;
26042;SDS011;13818;52.156;5.382;2023-09-18T07:53:09;9.82;;;4.78;;
26042;SDS011;13818;52.156;5.382;2023-09-18T07:55:36;8.32;;;4.72;;
26042;SDS011;13818;52.156;5.382;2023-09-18T07:58:03;8.00;;;4.65;;
26042;SDS011;13818;52.156;5.382;2023-09-18T08:00:30;9.40;;;4.63;;
26042;SDS011;13818;52.156;5.382;2023-09-18T08:02:58;8.50;;;4.93;;
26042;SDS011;13818;52.156;5.382;2023-09-18T08:05:27;7.10;;;4.15;;
26042;SDS011;13818;52.156;5.382;2023-09-18T08:07:55;5.20;;;3.65;;
26042;SDS011;13818;52.156;5.382;2023-09-18T08:10:22;7.53;;;4.07;;
26042;SDS011;13818;52.156;5.382;2023-09-18T08:12:48;5.93;;;3.72;;
26042;SDS011;13818;52.156;5.382;2023-09-18T08:15:16;5.82;;;3.15;;
26042;SDS011;13818;52.156;5.382;2023-09-18T08:17:43;5.88;;;3.60;;
26042;SDS011;13818;52.156;5.382;2023-09-18T08:20:11;5.88;;;3.50;;
26042;SDS011;13818;52.156;5.382;2023-09-18T08:22:42;3.47;;;2.20;;
26042;SDS011;13818;52.156;5.382;2023-09-18T08:25:09;5.85;;;3.40;;
26042;SDS011;13818;52.156;5.382;2023-09-18T08:27:36;6.82;;;3.38;;
26042;SDS011;13818;52.156;5.382;2023-09-18T08:30:05;7.95;;;3.53;;
26042;SDS011;13818;52.156;5.382;2023-09-18T08:32:32;5.72;;;3.00;;
26042;SDS011;13818;52.156;5.382;2023-09-18T08:34:59;4.50;;;3.13;;
26042;SDS011;13818;52.156;5.382;2023-09-18T08:37:26;5.20;;;2.60;;
26042;SDS011;13818;52.156;5.382;2023-09-18T08:39:54;4.43;;;2.80;;
26042;SDS011;13818;52.156;5.382;2023-09-18T08:42:20;6.55;;;3.17;;
26042;SDS011;13818;52.156;5.382;2023-09-18T08:44:48;7.28;;;2.85;;
26042;SDS011;13818;52.156;5.382;2023-09-18T08:47:17;5.32;;;2.80;;
26042;SDS011;13818;52.156;5.382;2023-09-18T08:49:44;5.40;;;2.72;;
26042;SDS011;13818;52.156;5.382;2023-09-18T08:52:12;5.43;;;2.90;;
26042;SDS011;13818;52.156;5.382;2023-09-18T08:54:40;5.57;;;2.72;;
26042;SDS011;13818;52.156;5.382;2023-09-18T08:57:07;4.57;;;2.65;;
26042;SDS011;13818;52.156;5.382;2023-09-18T08:59:34;5.47;;;2.53;;
26042;SDS011;13818;52.156;5.382;2023-09-18T09:02:02;7.07;;;3.05;;
26042;SDS011;13818;52.156;5.382;2023-09-18T09:04:28;4.90;;;2.25;;
26042;SDS011;13818;52.156;5.382;2023-09-18T09:06:55;4.25;;;2.30;;
26042;SDS011;13818;52.156;5.382;2023-09-18T09:09:24;4.82;;;2.45;;
26042;SDS011;13818;52.156;5.382;2023-09-18T09:11:51;3.15;;;2.30;;
26042;SDS011;13818;52.156;5.382;2023-09-18T09:14:19;5.15;;;2.28;;
26042;SDS011;13818;52.156;5.382;2023-09-18T09:16:52;4.32;;;1.63;;
26042;SDS011;13818;52.156;5.382;2023-09-18T09:19:27;5.07;;;2.28;;
26042;SDS011;13818;52.156;5.382;2023-09-18T09:21:55;6.35;;;2.50;;
26042;SDS011;13818;52.156;5.382;2023-09-18T09:24:35;4.05;;;2.00;;
26042;SDS011;13818;52.156;5.382;2023-09-18T09:27:03;5.68;;;2.38;;
26042;SDS011;13818;52.156;5.382;2023-09-18T09:29:31;4.13;;;2.10;;
26042;SDS011;13818;52.156;5.382;2023-09-18T09:32:05;4.05;;;1.90;;
26042;SDS011;13818;52.156;5.382;2023-09-18T09:34:38;4.45;;;1.90;;
26042;SDS011;13818;52.156;5.382;2023-09-18T09:37:04;4.18;;;2.13;;
26042;SDS011;13818;52.156;5.382;2023-09-18T09:39:31;4.75;;;1.70;;
26042;SDS011;13818;52.156;5.382;2023-09-18T09:41:59;2.80;;;1.60;;
26042;SDS011;13818;52.156;5.382;2023-09-18T09:44:27;2.65;;;1.70;;
26042;SDS011;13818;52.156;5.382;2023-09-18T09:46:55;3.28;;;1.75;;
26042;SDS011;13818;52.156;5.382;2023-09-18T09:49:22;6.07;;;2.20;;
26042;SDS011;13818;52.156;5.382;2023-09-18T09:51:49;5.53;;;2.33;;
26042;SDS011;13818;52.156;5.382;2023-09-18T09:54:22;4.65;;;2.20;;
26042;SDS011;13818;52.156;5.382;2023-09-18T09:56:59;5.85;;;2.58;;
26042;SDS011;13818;52.156;5.382;2023-09-18T09:59:29;4.68;;;2.65;;
26042;SDS011;13818;52.156;5.382;2023-09-18T10:01:59;4.50;;;3.10;;
26042;SDS011;13818;52.156;5.382;2023-09-18T10:06:56;6.38;;;3.97;;
26042;SDS011;13818;52.156;5.382;2023-09-18T10:09:29;6.90;;;3.58;;
26042;SDS011;13818;52.156;5.382;2023-09-18T10:11:56;4.40;;;3.72;;
26042;SDS011;13818;52.156;5.382;2023-09-18T10:14:27;7.43;;;4.13;;
26042;SDS011;13818;52.156;5.382;2023-09-18T10:16:57;5.05;;;3.75;;
26042;SDS011;13818;52.156;5.382;2023-09-18T10:19:32;4.72;;;3.42;;
26042;SDS011;13818;52.156;5.382;2023-09-18T10:22:06;4.97;;;3.60;;
26042;SDS011;13818;52.156;5.382;2023-09-18T10:24:38;3.97;;;3.13;;
26042;SDS011;13818;52.156;5.382;2023-09-18T10:27:06;6.68;;;3.88;;
26042;SDS011;13818;52.156;5.382;2023-09-18T10:29:34;4.82;;;3.42;;
26042;SDS011;13818;52.156;5.382;2023-09-18T10:32:05;4.38;;;3.10;;
26042;SDS011;13818;52.156;5.382;2023-09-18T10:34:33;5.18;;;3.25;;
26042;SDS011;13818;52.156;5.382;2023-09-18T10:37:01;5.82;;;3.17;;
26042;SDS011;13818;52.156;5.382;2023-09-18T10:39:31;4.22;;;3.30;;
26042;SDS011;13818;52.156;5.382;2023-09-18T10:42:02;5.03;;;3.38;;
26042;SDS011;13818;52.156;5.382;2023-09-18T10:44:31;5.65;;;3.55;;
26042;SDS011;13818;52.156;5.382;2023-09-18T10:46:58;5.97;;;3.30;;
26042;SDS011;13818;52.156;5.382;2023-09-18T10:49:27;5.53;;;3.70;;
26042;SDS011;13818;52.156;5.382;2023-09-18T10:51:54;4.75;;;3.38;;
26042;SDS011;13818;52.156;5.382;2023-09-18T10:54:22;4.38;;;2.78;;
26042;SDS011;13818;52.156;5.382;2023-09-18T10:56:50;3.63;;;2.80;;
26042;SDS011;13818;52.156;5.382;2023-09-18T10:59:17;4.93;;;2.80;;
26042;SDS011;13818;52.156;5.382;2023-09-18T11:01:44;5.65;;;3.10;;
26042;SDS011;13818;52.156;5.382;2023-09-18T11:04:11;5.30;;;3.13;;
26042;SDS011;13818;52.156;5.382;2023-09-18T11:09:31;3.72;;;2.95;;
26042;SDS011;13818;52.156;5.382;2023-09-18T11:12:08;4.78;;;3.35;;
26042;SDS011;13818;52.156;5.382;2023-09-18T11:14:43;6.07;;;3.15;;
26042;SDS011;13818;52.156;5.382;2023-09-18T11:17:30;4.60;;;2.97;;
26042;SDS011;13818;52.156;5.382;2023-09-18T11:20:02;3.13;;;2.80;;
26042;SDS011;13818;52.156;5.382;2023-09-18T11:22:32;3.55;;;3.00;;
26042;SDS011;13818;52.156;5.382;2023-09-18T11:28:04;4.22;;;3.10;;
26042;SDS011;13818;52.156;5.382;2023-09-18T11:30:32;6.40;;;2.53;;
26042;SDS011;13818;52.156;5.382;2023-09-18T11:33:00;4.95;;;2.38;;
26042;SDS011;13818;52.156;5.382;2023-09-18T11:35:28;3.05;;;2.38;;
26042;SDS011;13818;52.156;5.382;2023-09-18T11:38:06;6.30;;;2.78;;
26042;SDS011;13818;52.156;5.382;2023-09-18T11:40:34;5.35;;;2.85;;
26042;SDS011;13818;52.156;5.382;2023-09-18T11:43:23;4.20;;;2.63;;
26042;SDS011;13818;52.156;5.382;2023-09-18T11:45:52;4.25;;;2.47;;
26042;SDS011;13818;52.156;5.382;2023-09-18T11:48:20;5.35;;;2.50;;
26042;SDS011;13818;52.156;5.382;2023-09-18T11:50:49;3.63;;;2.28;;
26042;SDS011;13818;52.156;5.382;2023-09-18T11:53:18;3.08;;;2.42;;
26042;SDS011;13818;52.156;5.382;2023-09-18T11:55:45;4.57;;;2.33;;
26042;SDS011;13818;52.156;5.382;2023-09-18T11:58:12;6.95;;;3.00;;
26042;SDS011;13818;52.156;5.382;2023-09-18T12:00:39;5.50;;;2.53;;
26042;SDS011;13818;52.156;5.382;2023-09-18T12:03:15;3.53;;;2.88;;
26042;SDS011;13818;52.156;5.382;2023-09-18T12:05:51;4.90;;;3.10;;
26042;SDS011;13818;52.156;5.382;2023-09-18T12:08:20;6.05;;;3.88;;
26042;SDS011;13818;52.156;5.382;2023-09-18T12:10:50;5.88;;;3.42;;
26042;SDS011;13818;52.156;5.382;2023-09-18T12:13:17;9.40;;;4.35;;
26042;SDS011;13818;52.156;5.382;2023-09-18T12:15:43;6.22;;;3.78;;
26042;SDS011;13818;52.156;5.382;2023-09-18T12:18:10;5.85;;;3.03;;
26042;SDS011;13818;52.156;5.382;2023-09-18T12:23:04;3.63;;;2.60;;
26042;SDS011;13818;52.156;5.382;2023-09-18T12:25:34;5.60;;;2.80;;
26042;SDS011;13818;52.156;5.382;2023-09-18T12:28:01;6.03;;;2.95;;
26042;SDS011;13818;52.156;5.382;2023-09-18T12:30:29;4.30;;;2.72;;
26042;SDS011;13818;52.156;5.382;2023-09-18T12:32:57;4.43;;;2.42;;
26042;SDS011;13818;52.156;5.382;2023-09-18T12:35:25;4.10;;;2.63;;
26042;SDS011;13818;52.156;5.382;2023-09-18T12:37:54;3.38;;;2.35;;
26042;SDS011;13818;52.156;5.382;2023-09-18T12:40:21;3.90;;;2.08;;
26042;SDS011;13818;52.156;5.382;2023-09-18T12:42:50;5.82;;;2.60;;
26042;SDS011;13818;52.156;5.382;2023-09-18T12:45:18;3.55;;;2.38;;
26042;SDS011;13818;52.156;5.382;2023-09-18T12:47:45;3.95;;;1.88;;
26042;SDS011;13818;52.156;5.382;2023-09-18T12:50:12;4.65;;;2.53;;
26042;SDS011;13818;52.156;5.382;2023-09-18T12:52:39;5.85;;;2.33;;
26042;SDS011;13818;52.156;5.382;2023-09-18T12:55:06;4.93;;;2.38;;
26042;SDS011;13818;52.156;5.382;2023-09-18T12:57:33;4.85;;;2.53;;
26042;SDS011;13818;52.156;5.382;2023-09-18T13:00:08;3.15;;;2.30;;
26042;SDS011;13818;52.156;5.382;2023-09-18T13:02:38;4.82;;;2.60;;
26042;SDS011;13818;52.156;5.382;2023-09-18T13:05:05;4.25;;;2.20;;
26042;SDS011;13818;52.156;5.382;2023-09-18T13:07:42;4.03;;;2.90;;
26042;SDS011;13818;52.156;5.382;2023-09-18T13:10:10;5.82;;;2.88;;
26042;SDS011;13818;52.156;5.382;2023-09-18T13:12:39;6.57;;;2.50;;
26042;SDS011;13818;52.156;5.382;2023-09-18T13:15:06;3.97;;;2.75;;
26042;SDS011;13818;52.156;5.382;2023-09-18T13:17:37;5.38;;;2.50;;
26042;SDS011;13818;52.156;5.382;2023-09-18T13:22:39;3.72;;;2.30;;
26042;SDS011;13818;52.156;5.382;2023-09-18T13:25:06;9.63;;;2.50;;
26042;SDS011;13818;52.156;5.382;2023-09-18T13:27:34;3.08;;;2.38;;
26042;SDS011;13818;52.156;5.382;2023-09-18T13:30:00;4.30;;;2.38;;
26042;SDS011;13818;52.156;5.382;2023-09-18T13:32:33;4.63;;;2.60;;
26042;SDS011;13818;52.156;5.382;2023-09-18T13:35:01;4.78;;;2.08;;
26042;SDS011;13818;52.156;5.382;2023-09-18T13:37:28;4.80;;;2.33;;
26042;SDS011;13818;52.156;5.382;2023-09-18T13:39:55;4.10;;;2.55;;
26042;SDS011;13818;52.156;5.382;2023-09-18T13:42:21;3.95;;;2.00;;
26042;SDS011;13818;52.156;5.382;2023-09-18T13:44:48;5.25;;;2.00;;
26042;SDS011;13818;52.156;5.382;2023-09-18T13:47:15;4.72;;;2.20;;
26042;SDS011;13818;52.156;5.382;2023-09-18T13:49:42;6.45;;;2.03;;
26042;SDS011;13818;52.156;5.382;2023-09-18T13:52:11;5.68;;;2.00;;
26042;SDS011;13818;52.156;5.382;2023-09-18T13:54:38;3.97;;;2.17;;
26042;SDS011;13818;52.156;5.382;2023-09-18T13:57:05;4.78;;;2.10;;
26042;SDS011;13818;52.156;5.382;2023-09-18T13:59:32;2.63;;;1.65;;
26042;SDS011;13818;52.156;5.382;2023-09-18T14:01:58;2.63;;;1.75;;
26042;SDS011;13818;52.156;5.382;2023-09-18T14:04:25;2.30;;;1.67;;
26042;SDS011;13818;52.156;5.382;2023-09-18T14:06:55;2.05;;;1.48;;
26042;SDS011;13818;52.156;5.382;2023-09-18T14:09:21;5.10;;;1.67;;
26042;SDS011;13818;52.156;5.382;2023-09-18T14:11:47;2.75;;;1.20;;
26042;SDS011;13818;52.156;5.382;2023-09-18T14:14:14;2.60;;;1.52;;
26042;SDS011;13818;52.156;5.382;2023-09-18T14:16:40;2.50;;;1.48;;
26042;SDS011;13818;52.156;5.382;2023-09-18T14:19:07;5.82;;;2.13;;
26042;SDS011;13818;52.156;5.382;2023-09-18T14:21:36;3.95;;;1.88;;
26042;SDS011;13818;52.156;5.382;2023-09-18T14:24:04;3.05;;;1.23;;
26042;SDS011;13818;52.156;5.382;2023-09-18T14:26:31;6.38;;;1.80;;
26042;SDS011;13818;52.156;5.382;2023-09-18T14:31:26;1.30;;;1.00;;
26042;SDS011;13818;52.156;5.382;2023-09-18T14:33:53;2.67;;;1.08;;
26042;SDS011;13818;52.156;5.382;2023-09-18T14:36:20;2.42;;;1.05;;
26042;SDS011;13818;52.156;5.382;2023-09-18T14:38:46;2.95;;;1.50;;
26042;SDS011;13818;52.156;5.382;2023-09-18T14:41:14;2.83;;;1.35;;
26042;SDS011;13818;52.156;5.382;2023-09-18T14:43:43;3.75;;;1.30;;
26042;SDS011;13818;52.156;5.382;2023-09-18T14:46:10;2.15;;;1.50;;
26042;SDS011;13818;52.156;5.382;2023-09-18T14:48:36;4.20;;;1.38;;
26042;SDS011;13818;52.156;5.382;2023-09-18T14:51:03;1.67;;;1.00;;
26042;SDS011;13818;52.156;5.382;2023-09-18T14:53:29;2.20;;;1.40;;
26042;SDS011;13818;52.156;5.382;2023-09-18T14:55:55;3.45;;;1.27;;
26042;SDS011;13818;52.156;5.382;2023-09-18T14:58:24;2.42;;;1.52;;
26042;SDS011;13818;52.156;5.382;2023-09-18T15:00:50;2.83;;;1.33;;
26042;SDS011;13818;52.156;5.382;2023-09-18T15:03:18;2.80;;;1.30;;
26042;SDS011;13818;52.156;5.382;2023-09-18T15:05:44;4.00;;;1.50;;
26042;SDS011;13818;52.156;5.382;2023-09-18T15:08:11;3.45;;;1.20;;